Aviation Digital Data Service (ADDS)

Output produced by METARs form (1200 UTC 25 June 2019)
found at http://www.aviationweather.gov/metar/data/
 
METAR text: MMTJ 251149Z 26004KT 5SM OVC010 16/15 A2988 RMK SLP124 57006 965 8/6// HZY
Conditions at: MMTJ (TIJUANA INTL ARP, MX) observed 1149 UTC 25 June 2019
Temperature: 16.0°C (61°F)
Dewpoint: 15.0°C (59°F) [RH = 94%]
Pressure (altimeter): 29.88 inches Hg (1011.9 mb)
[Sea-level pressure: 1012.4 mb]
Winds: from the W (260 degrees) at 5 MPH (4 knots; 2.1 m/s)
Visibility: 5 miles ( 8 km)
Ceiling: 1000 feet AGL
Clouds: overcast cloud deck at 1000 feet AGL
Weather: no significant weather observed at this time

METAR text: MMTJ 251043Z 00000KT 5SM OVC010 17/15 A2989 RMK 8/6// HZY
Conditions at: MMTJ (TIJUANA INTL ARP, MX) observed 1043 UTC 25 June 2019
Temperature: 17.0°C (63°F)
Dewpoint: 15.0°C (59°F) [RH = 88%]
Pressure (altimeter): 29.89 inches Hg (1012.3 mb)
Winds: calm
Visibility: 5 miles ( 8 km)
Ceiling: 1000 feet AGL
Clouds: overcast cloud deck at 1000 feet AGL
Weather: no significant weather observed at this time

METAR text: MMTJ 250941Z 28006KT 5SM OVC010 17/15 A2989 RMK 8/6// HZY
Conditions at: MMTJ (TIJUANA INTL ARP, MX) observed 0941 UTC 25 June 2019
Temperature: 17.0°C (63°F)
Dewpoint: 15.0°C (59°F) [RH = 88%]
Pressure (altimeter): 29.89 inches Hg (1012.3 mb)
Winds: from the W (280 degrees) at 7 MPH (6 knots; 3.1 m/s)
Visibility: 5 miles ( 8 km)
Ceiling: 1000 feet AGL
Clouds: overcast cloud deck at 1000 feet AGL
Weather: no significant weather observed at this time

METAR text: MMTJ 250844Z 29003KT 5SM OVC010 17/15 A2990 RMK SLP129 58009 970 8/6// HZY
Conditions at: MMTJ (TIJUANA INTL ARP, MX) observed 0844 UTC 25 June 2019
Temperature: 17.0°C (63°F)
Dewpoint: 15.0°C (59°F) [RH = 88%]
Pressure (altimeter): 29.90 inches Hg (1012.6 mb)
[Sea-level pressure: 1012.9 mb]
Winds: from the WNW (290 degrees) at 3 MPH (3 knots; 1.5 m/s)
Visibility: 5 miles ( 8 km)
Ceiling: 1000 feet AGL
Clouds: overcast cloud deck at 1000 feet AGL
Weather: no significant weather observed at this time

METAR text: MMTJ 250746Z 00000KT 5SM OVC010 17/15 A2991 RMK 8/6// HZY
Conditions at: MMTJ (TIJUANA INTL ARP, MX) observed 0746 UTC 25 June 2019
Temperature: 17.0°C (63°F)
Dewpoint: 15.0°C (59°F) [RH = 88%]
Pressure (altimeter): 29.91 inches Hg (1013.0 mb)
Winds: calm
Visibility: 5 miles ( 8 km)
Ceiling: 1000 feet AGL
Clouds: overcast cloud deck at 1000 feet AGL
Weather: no significant weather observed at this time

METAR text: MMTJ 250643Z 00000KT 5SM OVC010 17/15 A2992 RMK 8/6// HZY
Conditions at: MMTJ (TIJUANA INTL ARP, MX) observed 0643 UTC 25 June 2019
Temperature: 17.0°C (63°F)
Dewpoint: 15.0°C (59°F) [RH = 88%]
Pressure (altimeter): 29.92 inches Hg (1013.3 mb)
Winds: calm
Visibility: 5 miles ( 8 km)
Ceiling: 1000 feet AGL
Clouds: overcast cloud deck at 1000 feet AGL
Weather: no significant weather observed at this time

METAR text: MMTJ 250540Z 27003KT 5SM OVC010 17/15 A2992 RMK SLP140 54000 963 8/6// HZY
Conditions at: MMTJ (TIJUANA INTL ARP, MX) observed 0540 UTC 25 June 2019
Temperature: 17.0°C (63°F)
Dewpoint: 15.0°C (59°F) [RH = 88%]
Pressure (altimeter): 29.92 inches Hg (1013.3 mb)
[Sea-level pressure: 1014.0 mb]
Winds: from the W (270 degrees) at 3 MPH (3 knots; 1.5 m/s)
Visibility: 5 miles ( 8 km)
Ceiling: 1000 feet AGL
Clouds: overcast cloud deck at 1000 feet AGL
Weather: no significant weather observed at this time

METAR text: MMTJ 250453Z 26004KT 5SM OVC013 17/15 A2992 RMK 8/6// HZY
Conditions at: MMTJ (TIJUANA INTL ARP, MX) observed 0453 UTC 25 June 2019
Temperature: 17.0°C (63°F)
Dewpoint: 15.0°C (59°F) [RH = 88%]
Pressure (altimeter): 29.92 inches Hg (1013.3 mb)
Winds: from the W (260 degrees) at 5 MPH (4 knots; 2.1 m/s)
Visibility: 5 miles ( 8 km)
Ceiling: 1300 feet AGL
Clouds: overcast cloud deck at 1300 feet AGL
Weather: no significant weather observed at this time

METAR text: MMTJ 250347Z 29005KT 5SM OVC013 17/15 A2992 RMK 8/6// HZY
Conditions at: MMTJ (TIJUANA INTL ARP, MX) observed 0347 UTC 25 June 2019
Temperature: 17.0°C (63°F)
Dewpoint: 15.0°C (59°F) [RH = 88%]
Pressure (altimeter): 29.92 inches Hg (1013.3 mb)
Winds: from the WNW (290 degrees) at 6 MPH (5 knots; 2.6 m/s)
Visibility: 5 miles ( 8 km)
Ceiling: 1300 feet AGL
Clouds: overcast cloud deck at 1300 feet AGL
Weather: no significant weather observed at this time

METAR text: MMTJ 250250Z 29008KT 5SM OVC013 17/15 A2992 RMK SLP141 54000 953 8/6// HZY
Conditions at: MMTJ (TIJUANA INTL ARP, MX) observed 0250 UTC 25 June 2019
Temperature: 17.0°C (63°F)
Dewpoint: 15.0°C (59°F) [RH = 88%]
Pressure (altimeter): 29.92 inches Hg (1013.3 mb)
[Sea-level pressure: 1014.1 mb]
Winds: from the WNW (290 degrees) at 9 MPH (8 knots; 4.1 m/s)
Visibility: 5 miles ( 8 km)
Ceiling: 1300 feet AGL
Clouds: overcast cloud deck at 1300 feet AGL
Weather: no significant weather observed at this time

METAR text: MMTJ 250146Z 00000KT 6SM OVC015 18/15 A2991 RMK 8/5// HZY
Conditions at: MMTJ (TIJUANA INTL ARP, MX) observed 0146 UTC 25 June 2019
Temperature: 18.0°C (64°F)
Dewpoint: 15.0°C (59°F) [RH = 83%]
Pressure (altimeter): 29.91 inches Hg (1013.0 mb)
Winds: calm
Visibility: 6 miles (10 km)
Ceiling: 1500 feet AGL
Clouds: overcast cloud deck at 1500 feet AGL
Weather: no significant weather observed at this time

METAR text: MMTJ 250040Z 26011KT 6SM OVC015 19/15 A2991 RMK 8/5// HZY
Conditions at: MMTJ (TIJUANA INTL ARP, MX) observed 0040 UTC 25 June 2019
Temperature: 19.0°C (66°F)
Dewpoint: 15.0°C (59°F) [RH = 78%]
Pressure (altimeter): 29.91 inches Hg (1013.0 mb)
Winds: from the W (260 degrees) at 13 MPH (11 knots; 5.7 m/s)
Visibility: 6 miles (10 km)
Ceiling: 1500 feet AGL
Clouds: overcast cloud deck at 1500 feet AGL
Weather: no significant weather observed at this time

METAR text: MMTJ 242344Z 28008KT 8SM SCT018 21/15 A2991 RMK SLP140 57009 958 8/500 HZY
Conditions at: MMTJ (TIJUANA INTL ARP, MX) observed 2344 UTC 24 June 2019
Temperature: 21.0°C (70°F)
Dewpoint: 15.0°C (59°F) [RH = 69%]
Pressure (altimeter): 29.91 inches Hg (1013.0 mb)
[Sea-level pressure: 1014.0 mb]
Winds: from the W (280 degrees) at 9 MPH (8 knots; 4.1 m/s)
Visibility: 8 miles (13 km)
Ceiling: at least 12,000 feet AGL
Clouds: scattered clouds at 1800 feet AGL
Weather: no significant weather observed at this time

METAR text: MMTJ 242245Z 30009KT 8SM FEW018 22/15 A2992 RMK 8/500 HZY
Conditions at: MMTJ (TIJUANA INTL ARP, MX) observed 2245 UTC 24 June 2019
Temperature: 22.0°C (72°F)
Dewpoint: 15.0°C (59°F) [RH = 65%]
Pressure (altimeter): 29.92 inches Hg (1013.3 mb)
Winds: from the WNW (300 degrees) at 10 MPH (9 knots; 4.6 m/s)
Visibility: 8 miles (13 km)
Ceiling: at least 12,000 feet AGL
Clouds: few clouds at 1800 feet AGL
Weather: no significant weather observed at this time

METAR text: MMTJ 242144Z 27009KT 8SM SCT018 22/15 A2993 RMK 8/500 HZY
Conditions at: MMTJ (TIJUANA INTL ARP, MX) observed 2144 UTC 24 June 2019
Temperature: 22.0°C (72°F)
Dewpoint: 15.0°C (59°F) [RH = 65%]
Pressure (altimeter): 29.93 inches Hg (1013.6 mb)
Winds: from the W (270 degrees) at 10 MPH (9 knots; 4.6 m/s)
Visibility: 8 miles (13 km)
Ceiling: at least 12,000 feet AGL
Clouds: scattered clouds at 1800 feet AGL
Weather: no significant weather observed at this time

METAR text: MMTJ 242045Z 27011KT 8SM SCT018 22/15 A2994 RMK SLP148 57002 971 8/500 HZY
Conditions at: MMTJ (TIJUANA INTL ARP, MX) observed 2045 UTC 24 June 2019
Temperature: 22.0°C (72°F)
Dewpoint: 15.0°C (59°F) [RH = 65%]
Pressure (altimeter): 29.94 inches Hg (1014.0 mb)
[Sea-level pressure: 1014.8 mb]
Winds: from the W (270 degrees) at 13 MPH (11 knots; 5.7 m/s)
Visibility: 8 miles (13 km)
Ceiling: at least 12,000 feet AGL
Clouds: scattered clouds at 1800 feet AGL
Weather: no significant weather observed at this time

METAR text: MMTJ 241941Z 32011KT 7SM FEW018 22/15 A2995 RMK 8/500 HZY
Conditions at: MMTJ (TIJUANA INTL ARP, MX) observed 1941 UTC 24 June 2019
Temperature: 22.0°C (72°F)
Dewpoint: 15.0°C (59°F) [RH = 65%]
Pressure (altimeter): 29.95 inches Hg (1014.3 mb)
Winds: from the NW (320 degrees) at 13 MPH (11 knots; 5.7 m/s)
Visibility: 7 miles (11 km)
Ceiling: at least 12,000 feet AGL
Clouds: few clouds at 1800 feet AGL
Weather: no significant weather observed at this time

METAR text: MMTJ 241845Z 29007KT 6SM SCT016 21/15 A2996 RMK 8/500 HZY
Conditions at: MMTJ (TIJUANA INTL ARP, MX) observed 1845 UTC 24 June 2019
Temperature: 21.0°C (70°F)
Dewpoint: 15.0°C (59°F) [RH = 69%]
Pressure (altimeter): 29.96 inches Hg (1014.6 mb)
Winds: from the WNW (290 degrees) at 8 MPH (7 knots; 3.6 m/s)
Visibility: 6 miles (10 km)
Ceiling: at least 12,000 feet AGL
Clouds: scattered clouds at 1600 feet AGL
Weather: no significant weather observed at this time

METAR text: MMTJ 241747Z 25007KT 5SM OVC015 20/15 A2996 RMK SLP151 52012 979 8/4// HZY
Conditions at: MMTJ (TIJUANA INTL ARP, MX) observed 1747 UTC 24 June 2019
Temperature: 20.0°C (68°F)
Dewpoint: 15.0°C (59°F) [RH = 73%]
Pressure (altimeter): 29.96 inches Hg (1014.6 mb)
[Sea-level pressure: 1015.1 mb]
Winds: from the WSW (250 degrees) at 8 MPH (7 knots; 3.6 m/s)
Visibility: 5 miles ( 8 km)
Ceiling: 1500 feet AGL
Clouds: overcast cloud deck at 1500 feet AGL
Weather: no significant weather observed at this time

METAR text: MMTJ 241645Z 00000KT 4SM OVC012 19/15 A2996 RMK 8/4// HZY
Conditions at: MMTJ (TIJUANA INTL ARP, MX) observed 1645 UTC 24 June 2019
Temperature: 19.0°C (66°F)
Dewpoint: 15.0°C (59°F) [RH = 78%]
Pressure (altimeter): 29.96 inches Hg (1014.6 mb)
Winds: calm
Visibility: 4 miles ( 6 km)
Ceiling: 1200 feet AGL
Clouds: overcast cloud deck at 1200 feet AGL
Weather: no significant weather observed at this time

METAR text: MMTJ 241553Z 28004KT 4SM OVC012 18/15 A2996 RMK 8/4// HZY
Conditions at: MMTJ (TIJUANA INTL ARP, MX) observed 1553 UTC 24 June 2019
Temperature: 18.0°C (64°F)
Dewpoint: 15.0°C (59°F) [RH = 83%]
Pressure (altimeter): 29.96 inches Hg (1014.6 mb)
Winds: from the W (280 degrees) at 5 MPH (4 knots; 2.1 m/s)
Visibility: 4 miles ( 6 km)
Ceiling: 1200 feet AGL
Clouds: overcast cloud deck at 1200 feet AGL
Weather: no significant weather observed at this time

METAR text: MMTJ 241452Z 24004KT 4SM OVC011 17/15 A2996 RMK SLP139 54000 976 8/6// BR
Conditions at: MMTJ (TIJUANA INTL ARP, MX) observed 1452 UTC 24 June 2019
Temperature: 17.0°C (63°F)
Dewpoint: 15.0°C (59°F) [RH = 88%]
Pressure (altimeter): 29.96 inches Hg (1014.6 mb)
[Sea-level pressure: 1013.9 mb]
Winds: from the WSW (240 degrees) at 5 MPH (4 knots; 2.1 m/s)
Visibility: 4 miles ( 6 km)
Ceiling: 1100 feet AGL
Clouds: overcast cloud deck at 1100 feet AGL
Weather: no significant weather observed at this time

METAR text: MMTJ 241406Z 25003KT 3SM BR OVC008 16/16 A2995 RMK 8/7// DZE00 VC PCPN TWR VSBY
Conditions at: MMTJ (TIJUANA INTL ARP, MX) observed 1406 UTC 24 June 2019
Temperature: 16.0°C (61°F)
Dewpoint: 16.0°C (61°F) [RH = 100%]
Pressure (altimeter): 29.95 inches Hg (1014.3 mb)
Winds: from the WSW (250 degrees) at 3 MPH (3 knots; 1.5 m/s)
Visibility: 3 miles ( 5 km)
Ceiling: 800 feet AGL
Clouds: overcast cloud deck at 800 feet AGL
Weather: BR  (mist)

METAR text: MMTJ 241345Z 26006KT 3SM DZ OVC007 16/16 A2994 RMK 8/7// DZB35 TWR VSBY
Conditions at: MMTJ (TIJUANA INTL ARP, MX) observed 1345 UTC 24 June 2019
Temperature: 16.0°C (61°F)
Dewpoint: 16.0°C (61°F) [RH = 100%]
Pressure (altimeter): 29.94 inches Hg (1014.0 mb)
Winds: from the W (260 degrees) at 7 MPH (6 knots; 3.1 m/s)
Visibility: 3 miles ( 5 km)
Ceiling: 700 feet AGL
Clouds: overcast cloud deck at 700 feet AGL
Weather: DZ  (moderate drizzle)

METAR text: MMTJ 241240Z 27003KT 3SM BR OVC007 16/16 A2994 RMK 8/7// OCNL DROPS VC PCPN
Conditions at: MMTJ (TIJUANA INTL ARP, MX) observed 1240 UTC 24 June 2019
Temperature: 16.0°C (61°F)
Dewpoint: 16.0°C (61°F) [RH = 100%]
Pressure (altimeter): 29.94 inches Hg (1014.0 mb)
Winds: from the W (270 degrees) at 3 MPH (3 knots; 1.5 m/s)
Visibility: 3 miles ( 5 km)
Ceiling: 700 feet AGL
Clouds: overcast cloud deck at 700 feet AGL
Weather: BR  (mist)

METAR text: MMTJ 241143Z 26005KT 5SM OVC007 16/16 A2993 RMK SLP139 57011 973 60005 8/7// DZE30 VC PCPN
Conditions at: MMTJ (TIJUANA INTL ARP, MX) observed 1143 UTC 24 June 2019
Temperature: 16.0°C (61°F)
Dewpoint: 16.0°C (61°F) [RH = 100%]
Pressure (altimeter): 29.93 inches Hg (1013.6 mb)
[Sea-level pressure: 1013.9 mb]
Winds: from the W (260 degrees) at 6 MPH (5 knots; 2.6 m/s)
Visibility: 5 miles ( 8 km)
Ceiling: 700 feet AGL
Clouds: overcast cloud deck at 700 feet AGL
Weather: no significant weather observed at this time

METAR text: MMTJ 241042Z 25004KT 5SM DZ OVC007 16/16 A2995 RMK 60005 8/7//
Conditions at: MMTJ (TIJUANA INTL ARP, MX) observed 1042 UTC 24 June 2019
Temperature: 16.0°C (61°F)
Dewpoint: 16.0°C (61°F) [RH = 100%]
Pressure (altimeter): 29.95 inches Hg (1014.3 mb)
Winds: from the WSW (250 degrees) at 5 MPH (4 knots; 2.1 m/s)
Visibility: 5 miles ( 8 km)
Ceiling: 700 feet AGL
Clouds: overcast cloud deck at 700 feet AGL
Weather: DZ  (moderate drizzle)

METAR text: MMTJ 240942Z 25003KT 3SM DZ OVC007 16/16 A2996 RMK 60005 8/7// TWR VSBY
Conditions at: MMTJ (TIJUANA INTL ARP, MX) observed 0942 UTC 24 June 2019
Temperature: 16.0°C (61°F)
Dewpoint: 16.0°C (61°F) [RH = 100%]
Pressure (altimeter): 29.96 inches Hg (1014.6 mb)
Winds: from the WSW (250 degrees) at 3 MPH (3 knots; 1.5 m/s)
Visibility: 3 miles ( 5 km)
Ceiling: 700 feet AGL
Clouds: overcast cloud deck at 700 feet AGL
Weather: DZ  (moderate drizzle)

METAR text: MMTJ 240842Z 26003KT 3SM DZ OVC007 16/16 A2997 RMK SLP149 58002 964 60005 8/7// TWR VSBY
Conditions at: MMTJ (TIJUANA INTL ARP, MX) observed 0842 UTC 24 June 2019
Temperature: 16.0°C (61°F)
Dewpoint: 16.0°C (61°F) [RH = 100%]
Pressure (altimeter): 29.97 inches Hg (1015.0 mb)
[Sea-level pressure: 1014.9 mb]
Winds: from the W (260 degrees) at 3 MPH (3 knots; 1.5 m/s)
Visibility: 3 miles ( 5 km)
Ceiling: 700 feet AGL
Clouds: overcast cloud deck at 700 feet AGL
Weather: DZ  (moderate drizzle)

METAR text: MMTJ 240742Z 27003KT 3SM DZ OVC007 16/16 A2998 RMK 60005 8/7// TWR VSBY
Conditions at: MMTJ (TIJUANA INTL ARP, MX) observed 0742 UTC 24 June 2019
Temperature: 16.0°C (61°F)
Dewpoint: 16.0°C (61°F) [RH = 100%]
Pressure (altimeter): 29.98 inches Hg (1015.3 mb)
Winds: from the W (270 degrees) at 3 MPH (3 knots; 1.5 m/s)
Visibility: 3 miles ( 5 km)
Ceiling: 700 feet AGL
Clouds: overcast cloud deck at 700 feet AGL
Weather: DZ  (moderate drizzle)

METAR text: MMTJ 240642Z 27004KT 4SM DZ OVC010 17/16 A2999 RMK 8/7// DZB33
Conditions at: MMTJ (TIJUANA INTL ARP, MX) observed 0642 UTC 24 June 2019
Temperature: 17.0°C (63°F)
Dewpoint: 16.0°C (61°F) [RH = 94%]
Pressure (altimeter): 29.99 inches Hg (1015.7 mb)
Winds: from the W (270 degrees) at 5 MPH (4 knots; 2.1 m/s)
Visibility: 4 miles ( 6 km)
Ceiling: 1000 feet AGL
Clouds: overcast cloud deck at 1000 feet AGL
Weather: DZ  (moderate drizzle)

METAR text: MMTJ 240545Z 26006KT 5SM OVC010 17/15 A2999 RMK SLP152 53009 964 8/5// HZ
Conditions at: MMTJ (TIJUANA INTL ARP, MX) observed 0545 UTC 24 June 2019
Temperature: 17.0°C (63°F)
Dewpoint: 15.0°C (59°F) [RH = 88%]
Pressure (altimeter): 29.99 inches Hg (1015.7 mb)
[Sea-level pressure: 1015.2 mb]
Winds: from the W (260 degrees) at 7 MPH (6 knots; 3.1 m/s)
Visibility: 5 miles ( 8 km)
Ceiling: 1000 feet AGL
Clouds: overcast cloud deck at 1000 feet AGL
Weather: no significant weather observed at this time

METAR text: MMTJ 240440Z 27007KT 5SM OVC010 17/15 A2999 RMK 8/5// HZ
Conditions at: MMTJ (TIJUANA INTL ARP, MX) observed 0440 UTC 24 June 2019
Temperature: 17.0°C (63°F)
Dewpoint: 15.0°C (59°F) [RH = 88%]
Pressure (altimeter): 29.99 inches Hg (1015.7 mb)
Winds: from the W (270 degrees) at 8 MPH (7 knots; 3.6 m/s)
Visibility: 5 miles ( 8 km)
Ceiling: 1000 feet AGL
Clouds: overcast cloud deck at 1000 feet AGL
Weather: no significant weather observed at this time

METAR text: MMTJ 240347Z 25008KT 6SM OVC010 17/15 A2997 RMK 8/6//
Conditions at: MMTJ (TIJUANA INTL ARP, MX) observed 0347 UTC 24 June 2019
Temperature: 17.0°C (63°F)
Dewpoint: 15.0°C (59°F) [RH = 88%]
Pressure (altimeter): 29.97 inches Hg (1015.0 mb)
Winds: from the WSW (250 degrees) at 9 MPH (8 knots; 4.1 m/s)
Visibility: 6 miles (10 km)
Ceiling: 1000 feet AGL
Clouds: overcast cloud deck at 1000 feet AGL
Weather: no significant weather observed at this time

METAR text: MMTJ 240247Z 28009KT 6SM OVC010 18/15 A2996 RMK SLP143 57005 965 8/6//
Conditions at: MMTJ (TIJUANA INTL ARP, MX) observed 0247 UTC 24 June 2019
Temperature: 18.0°C (64°F)
Dewpoint: 15.0°C (59°F) [RH = 83%]
Pressure (altimeter): 29.96 inches Hg (1014.6 mb)
[Sea-level pressure: 1014.3 mb]
Winds: from the W (280 degrees) at 10 MPH (9 knots; 4.6 m/s)
Visibility: 6 miles (10 km)
Ceiling: 1000 feet AGL
Clouds: overcast cloud deck at 1000 feet AGL
Weather: no significant weather observed at this time

METAR text: MMTJ 240147Z 28010KT 6SM OVC010 18/15 A2996 RMK 8/6// HZY
Conditions at: MMTJ (TIJUANA INTL ARP, MX) observed 0147 UTC 24 June 2019
Temperature: 18.0°C (64°F)
Dewpoint: 15.0°C (59°F) [RH = 83%]
Pressure (altimeter): 29.96 inches Hg (1014.6 mb)
Winds: from the W (280 degrees) at 12 MPH (10 knots; 5.1 m/s)
Visibility: 6 miles (10 km)
Ceiling: 1000 feet AGL
Clouds: overcast cloud deck at 1000 feet AGL
Weather: no significant weather observed at this time

METAR text: MMTJ 240048Z 27009KT 6SM OVC016 19/15 A2996 RMK 8/5// HZY
Conditions at: MMTJ (TIJUANA INTL ARP, MX) observed 0048 UTC 24 June 2019
Temperature: 19.0°C (66°F)
Dewpoint: 15.0°C (59°F) [RH = 78%]
Pressure (altimeter): 29.96 inches Hg (1014.6 mb)
Winds: from the W (270 degrees) at 10 MPH (9 knots; 4.6 m/s)
Visibility: 6 miles (10 km)
Ceiling: 1600 feet AGL
Clouds: overcast cloud deck at 1600 feet AGL
Weather: no significant weather observed at this time

Forecast for: MMTJ (TIJUANA INTL ARP, MX)
Text: TAF MMTJ 251048Z 2512/2618 28006KT 5SM HZ OVC010 TX22/2521Z TN17/2512Z
Forecast period: 1200 to 1800 UTC 25 June 2019
Forecast type: FROM: standard forecast or significant change
Winds: from the W (280 degrees) at 7 MPH (6 knots; 3.1 m/s)
Visibility: 5 miles (8 km)
Ceiling: 1000 feet AGL
Clouds: overcast cloud deck at 1000 feet AGL
Weather: HZ  (haze)
Text: TEMPO 2512/2515 3SM BR
Forecast period: 1200 to 1500 UTC 25 June 2019
Forecast type: TEMPORARY: The following changes expected for less than half the time period
Visibility: 3 miles (5 km)
Ceiling: unknown
Clouds: missing
Weather: BR  (mist)
Text: FM251800 26010KT 6SM HZ BKN020
Forecast period: 1800 UTC 25 June 2019 to 0600 UTC 26 June 2019
Forecast type: FROM: standard forecast or significant change
Winds: from the W (260 degrees) at 12 MPH (10 knots; 5.1 m/s)
Visibility: 6 miles (10 km)
Ceiling: 2000 feet AGL
Clouds: broken clouds at 2000 feet AGL
Weather: HZ  (haze)
Text: FM260600 27005KT 6SM HZ OVC020
Forecast period: 0600 to 1000 UTC 26 June 2019
Forecast type: FROM: standard forecast or significant change
Winds: from the W (270 degrees) at 6 MPH (5 knots; 2.6 m/s)
Visibility: 6 miles (10 km)
Ceiling: 2000 feet AGL
Clouds: overcast cloud deck at 2000 feet AGL
Weather: HZ  (haze)
Text: BECMG 2610/2612 28010KT OVC015
Forecast period: 1000 to 1800 UTC 26 June 2019
Forecast type: BECOMING: Conditions expected to become as follows by 1200 UTC 26 June 2019
Winds: from the W (280 degrees) at 12 MPH (10 knots; 5.1 m/s)
Visibility: 6 miles (10 km)
Ceiling: 1500 feet AGL
Clouds: overcast cloud deck at 1500 feet AGL
Weather: HZ  (haze)